sensor_id;sensor_type;location;lat;lon;timestamp;pressure;altitude;pressure_sealevel;temperature;humidity
4858;BME280;58975;51.978;8.472;2024-02-15T00:04:00;100669.53;;;10.59;100.00
4858;BME280;58975;51.978;8.472;2024-02-15T00:08:57;100671.72;;;10.54;100.00
4858;BME280;58975;51.978;8.472;2024-02-15T00:13:53;100686.50;;;10.58;100.00
4858;BME280;58975;51.978;8.472;2024-02-15T00:18:52;100695.31;;;10.59;100.00
4858;BME280;58975;51.978;8.472;2024-02-15T00:23:48;100684.78;;;10.57;100.00
4858;BME280;58975;51.978;8.472;2024-02-15T00:28:45;100689.38;;;10.55;100.00
4858;BME280;58975;51.978;8.472;2024-02-15T00:33:42;100698.34;;;10.54;100.00
4858;BME280;58975;51.978;8.472;2024-02-15T00:38:39;100703.53;;;10.56;100.00
4858;BME280;58975;51.978;8.472;2024-02-15T00:43:36;100700.00;;;10.55;100.00
4858;BME280;58975;51.978;8.472;2024-02-15T00:48:33;100714.31;;;10.54;100.00
4858;BME280;58975;51.978;8.472;2024-02-15T00:53:29;100710.66;;;10.55;100.00
4858;BME280;58975;51.978;8.472;2024-02-15T00:58:26;100719.41;;;10.57;100.00
4858;BME280;58975;51.978;8.472;2024-02-15T01:03:23;100726.78;;;10.54;100.00
4858;BME280;58975;51.978;8.472;2024-02-15T01:08:20;100731.00;;;10.56;100.00
4858;BME280;58975;51.978;8.472;2024-02-15T01:13:17;100732.72;;;10.57;100.00
4858;BME280;58975;51.978;8.472;2024-02-15T01:18:14;100737.81;;;10.60;100.00
4858;BME280;58975;51.978;8.472;2024-02-15T01:23:11;100745.09;;;10.58;100.00
4858;BME280;58975;51.978;8.472;2024-02-15T01:28:07;100741.66;;;10.56;100.00
4858;BME280;58975;51.978;8.472;2024-02-15T01:33:04;100753.28;;;10.55;100.00
4858;BME280;58975;51.978;8.472;2024-02-15T01:38:01;100748.94;;;10.54;100.00
4858;BME280;58975;51.978;8.472;2024-02-15T01:42:57;100757.75;;;10.55;100.00
4858;BME280;58975;51.978;8.472;2024-02-15T01:47:57;100762.13;;;10.56;100.00
4858;BME280;58975;51.978;8.472;2024-02-15T01:52:56;100755.22;;;10.53;100.00
4858;BME280;58975;51.978;8.472;2024-02-15T01:57:54;100754.13;;;10.56;100.00
4858;BME280;58975;51.978;8.472;2024-02-15T02:02:53;100767.69;;;10.53;100.00
4858;BME280;58975;51.978;8.472;2024-02-15T02:07:50;100769.06;;;10.58;100.00
4858;BME280;58975;51.978;8.472;2024-02-15T02:12:46;100762.00;;;10.57;100.00
4858;BME280;58975;51.978;8.472;2024-02-15T02:17:48;100769.88;;;10.59;100.00
4858;BME280;58975;51.978;8.472;2024-02-15T02:22:46;100765.41;;;10.59;100.00
4858;BME280;58975;51.978;8.472;2024-02-15T02:27:44;100760.06;;;10.59;100.00
4858;BME280;58975;51.978;8.472;2024-02-15T02:32:41;100763.72;;;10.58;100.00
4858;BME280;58975;51.978;8.472;2024-02-15T02:37:39;100764.69;;;10.57;100.00
4858;BME280;58975;51.978;8.472;2024-02-15T02:42:45;100765.63;;;10.56;100.00
4858;BME280;58975;51.978;8.472;2024-02-15T02:47:42;100762.88;;;10.58;100.00
4858;BME280;58975;51.978;8.472;2024-02-15T02:52:39;100764.44;;;10.60;100.00
4858;BME280;58975;51.978;8.472;2024-02-15T02:57:37;100757.66;;;10.56;100.00
4858;BME280;58975;51.978;8.472;2024-02-15T03:02:34;100772.66;;;10.57;100.00
4858;BME280;58975;51.978;8.472;2024-02-15T03:07:38;100759.47;;;10.56;100.00
4858;BME280;58975;51.978;8.472;2024-02-15T03:12:37;100757.41;;;10.59;100.00
4858;BME280;58975;51.978;8.472;2024-02-15T03:17:34;100759.34;;;10.57;100.00
4858;BME280;58975;51.978;8.472;2024-02-15T03:22:31;100761.78;;;10.60;100.00
4858;BME280;58975;51.978;8.472;2024-02-15T03:27:28;100759.13;;;10.60;100.00
4858;BME280;58975;51.978;8.472;2024-02-15T03:32:24;100746.66;;;10.61;100.00
4858;BME280;58975;51.978;8.472;2024-02-15T03:37:21;100754.31;;;10.65;100.00
4858;BME280;58975;51.978;8.472;2024-02-15T03:42:18;100757.69;;;10.67;100.00
4858;BME280;58975;51.978;8.472;2024-02-15T03:47:14;100751.31;;;10.70;100.00
4858;BME280;58975;51.978;8.472;2024-02-15T03:52:11;100753.81;;;10.71;100.00
4858;BME280;58975;51.978;8.472;2024-02-15T03:57:08;100751.56;;;10.78;100.00
4858;BME280;58975;51.978;8.472;2024-02-15T04:02:04;100749.97;;;10.75;100.00
4858;BME280;58975;51.978;8.472;2024-02-15T04:07:04;100756.25;;;10.74;100.00
4858;BME280;58975;51.978;8.472;2024-02-15T04:12:02;100747.44;;;10.74;100.00
4858;BME280;58975;51.978;8.472;2024-02-15T04:16:58;100742.22;;;10.72;100.00
4858;BME280;58975;51.978;8.472;2024-02-15T04:21:55;100740.84;;;10.67;100.00
4858;BME280;58975;51.978;8.472;2024-02-15T04:26:52;100741.72;;;10.67;100.00
4858;BME280;58975;51.978;8.472;2024-02-15T04:31:49;100727.53;;;10.67;100.00
4858;BME280;58975;51.978;8.472;2024-02-15T04:36:47;100727.19;;;10.71;100.00
4858;BME280;58975;51.978;8.472;2024-02-15T04:41:47;100726.47;;;10.69;100.00
4858;BME280;58975;51.978;8.472;2024-02-15T04:46:43;100725.72;;;10.67;100.00
4858;BME280;58975;51.978;8.472;2024-02-15T04:51:42;100724.50;;;10.60;100.00
4858;BME280;58975;51.978;8.472;2024-02-15T04:56:40;100736.63;;;10.64;100.00
4858;BME280;58975;51.978;8.472;2024-02-15T05:01:37;100731.63;;;10.60;100.00
4858;BME280;58975;51.978;8.472;2024-02-15T05:06:33;100728.25;;;10.58;100.00
4858;BME280;58975;51.978;8.472;2024-02-15T05:11:30;100704.56;;;10.66;100.00
4858;BME280;58975;51.978;8.472;2024-02-15T05:16:26;100703.81;;;10.64;100.00
4858;BME280;58975;51.978;8.472;2024-02-15T05:21:23;100706.59;;;10.62;100.00
4858;BME280;58975;51.978;8.472;2024-02-15T05:26:19;100699.41;;;10.52;100.00
4858;BME280;58975;51.978;8.472;2024-02-15T05:31:20;100682.84;;;10.59;100.00
4858;BME280;58975;51.978;8.472;2024-02-15T05:36:18;100680.03;;;10.50;100.00
4858;BME280;58975;51.978;8.472;2024-02-15T05:41:20;100663.56;;;10.44;100.00
4858;BME280;58975;51.978;8.472;2024-02-15T05:46:17;100657.63;;;10.41;100.00
4858;BME280;58975;51.978;8.472;2024-02-15T05:51:13;100651.44;;;10.40;100.00
4858;BME280;58975;51.978;8.472;2024-02-15T05:56:10;100657.50;;;10.42;100.00
4858;BME280;58975;51.978;8.472;2024-02-15T06:01:07;100652.81;;;10.46;100.00
4858;BME280;58975;51.978;8.472;2024-02-15T06:06:04;100646.75;;;10.55;100.00
4858;BME280;58975;51.978;8.472;2024-02-15T06:11:05;100640.44;;;10.45;100.00
4858;BME280;58975;51.978;8.472;2024-02-15T06:16:01;100637.69;;;10.47;100.00
4858;BME280;58975;51.978;8.472;2024-02-15T06:20:59;100636.81;;;10.46;100.00
4858;BME280;58975;51.978;8.472;2024-02-15T06:25:56;100618.91;;;10.48;100.00
4858;BME280;58975;51.978;8.472;2024-02-15T06:30:58;100614.91;;;10.42;100.00
4858;BME280;58975;51.978;8.472;2024-02-15T06:36:14;100607.28;;;10.38;100.00
4858;BME280;58975;51.978;8.472;2024-02-15T06:41:29;100604.09;;;10.33;100.00
4858;BME280;58975;51.978;8.472;2024-02-15T06:46:26;100605.56;;;10.37;100.00
4858;BME280;58975;51.978;8.472;2024-02-15T06:51:22;100607.97;;;10.29;100.00
4858;BME280;58975;51.978;8.472;2024-02-15T06:56:21;100593.63;;;10.42;100.00
4858;BME280;58975;51.978;8.472;2024-02-15T07:01:18;100583.56;;;10.46;100.00
4858;BME280;58975;51.978;8.472;2024-02-15T07:06:14;100570.63;;;10.41;100.00
4858;BME280;58975;51.978;8.472;2024-02-15T07:11:11;100563.94;;;10.47;100.00
4858;BME280;58975;51.978;8.472;2024-02-15T07:16:08;100557.31;;;10.41;100.00
4858;BME280;58975;51.978;8.472;2024-02-15T07:21:05;100547.97;;;10.47;100.00
4858;BME280;58975;51.978;8.472;2024-02-15T07:26:07;100559.72;;;10.44;100.00
4858;BME280;58975;51.978;8.472;2024-02-15T07:31:04;100555.38;;;10.55;100.00
4858;BME280;58975;51.978;8.472;2024-02-15T07:36:01;100561.78;;;10.52;100.00
4858;BME280;58975;51.978;8.472;2024-02-15T07:40:57;100563.34;;;10.55;100.00
4858;BME280;58975;51.978;8.472;2024-02-15T07:45:53;100569.78;;;10.63;100.00
4858;BME280;58975;51.978;8.472;2024-02-15T07:50:50;100564.94;;;10.57;100.00
4858;BME280;58975;51.978;8.472;2024-02-15T07:55:46;100569.19;;;10.71;100.00
4858;BME280;58975;51.978;8.472;2024-02-15T08:00:45;100557.22;;;10.76;100.00
4858;BME280;58975;51.978;8.472;2024-02-15T08:05:42;100557.94;;;10.78;100.00
4858;BME280;58975;51.978;8.472;2024-02-15T08:10:39;100537.00;;;10.85;100.00
4858;BME280;58975;51.978;8.472;2024-02-15T08:15:35;100530.06;;;10.82;100.00
4858;BME280;58975;51.978;8.472;2024-02-15T08:20:32;100514.84;;;10.84;100.00
4858;BME280;58975;51.978;8.472;2024-02-15T08:25:30;100494.13;;;10.88;100.00
4858;BME280;58975;51.978;8.472;2024-02-15T08:30:27;100494.00;;;10.89;100.00
4858;BME280;58975;51.978;8.472;2024-02-15T08:35:24;100482.00;;;10.84;100.00
4858;BME280;58975;51.978;8.472;2024-02-15T08:40:21;100472.69;;;10.78;100.00
4858;BME280;58975;51.978;8.472;2024-02-15T08:45:22;100479.59;;;10.81;100.00
4858;BME280;58975;51.978;8.472;2024-02-15T08:50:20;100480.78;;;10.88;100.00
4858;BME280;58975;51.978;8.472;2024-02-15T08:55:19;100491.81;;;10.83;100.00
4858;BME280;58975;51.978;8.472;2024-02-15T09:00:20;100476.56;;;10.85;100.00
4858;BME280;58975;51.978;8.472;2024-02-15T09:05:17;100487.69;;;10.90;100.00
4858;BME280;58975;51.978;8.472;2024-02-15T09:10:15;100487.94;;;10.87;100.00
4858;BME280;58975;51.978;8.472;2024-02-15T09:15:13;100488.69;;;10.89;100.00
4858;BME280;58975;51.978;8.472;2024-02-15T09:20:15;100491.06;;;11.04;100.00
4858;BME280;58975;51.978;8.472;2024-02-15T09:25:11;100491.66;;;11.07;100.00
4858;BME280;58975;51.978;8.472;2024-02-15T09:30:10;100492.00;;;11.14;100.00
4858;BME280;58975;51.978;8.472;2024-02-15T09:35:12;100499.50;;;11.20;100.00
4858;BME280;58975;51.978;8.472;2024-02-15T09:40:10;100505.69;;;11.20;100.00
4858;BME280;58975;51.978;8.472;2024-02-15T09:45:08;100512.63;;;11.12;100.00
4858;BME280;58975;51.978;8.472;2024-02-15T09:50:14;100518.69;;;11.03;100.00
4858;BME280;58975;51.978;8.472;2024-02-15T09:55:11;100515.91;;;11.04;100.00
4858;BME280;58975;51.978;8.472;2024-02-15T10:00:11;100520.97;;;11.07;100.00
4858;BME280;58975;51.978;8.472;2024-02-15T10:05:12;100523.28;;;11.12;100.00
4858;BME280;58975;51.978;8.472;2024-02-15T10:10:25;100521.09;;;11.17;100.00
4858;BME280;58975;51.978;8.472;2024-02-15T10:15:36;100528.84;;;11.20;100.00
4858;BME280;58975;51.978;8.472;2024-02-15T10:20:33;100533.44;;;11.18;100.00
4858;BME280;58975;51.978;8.472;2024-02-15T10:25:31;100532.47;;;11.19;100.00
4858;BME280;58975;51.978;8.472;2024-02-15T10:30:28;100548.94;;;11.24;100.00
4858;BME280;58975;51.978;8.472;2024-02-15T10:35:25;100543.63;;;11.24;100.00
4858;BME280;58975;51.978;8.472;2024-02-15T10:40:22;100538.88;;;11.27;100.00
4858;BME280;58975;51.978;8.472;2024-02-15T10:45:19;100539.97;;;11.25;100.00
4858;BME280;58975;51.978;8.472;2024-02-15T10:50:16;100534.88;;;11.22;100.00
4858;BME280;58975;51.978;8.472;2024-02-15T10:55:21;100544.34;;;11.15;100.00
4858;BME280;58975;51.978;8.472;2024-02-15T11:00:20;100544.34;;;11.15;100.00
4858;BME280;58975;51.978;8.472;2024-02-15T11:05:17;100547.97;;;11.14;100.00
4858;BME280;58975;51.978;8.472;2024-02-15T11:10:19;100533.69;;;11.15;100.00
4858;BME280;58975;51.978;8.472;2024-02-15T11:15:44;100537.78;;;11.19;100.00
4858;BME280;58975;51.978;8.472;2024-02-15T11:20:49;100528.59;;;11.12;100.00
4858;BME280;58975;51.978;8.472;2024-02-15T11:25:46;100546.66;;;11.08;100.00
4858;BME280;58975;51.978;8.472;2024-02-15T11:30:42;100538.94;;;11.05;100.00
4858;BME280;58975;51.978;8.472;2024-02-15T11:36:02;100539.28;;;11.01;100.00
4858;BME280;58975;51.978;8.472;2024-02-15T11:41:04;100523.41;;;10.99;100.00
4858;BME280;58975;51.978;8.472;2024-02-15T11:46:01;100492.63;;;11.06;100.00
4858;BME280;58975;51.978;8.472;2024-02-15T11:50:59;100486.22;;;11.09;100.00
4858;BME280;58975;51.978;8.472;2024-02-15T11:56:00;100491.28;;;11.12;100.00
4858;BME280;58975;51.978;8.472;2024-02-15T12:00:59;100482.28;;;11.24;100.00
4858;BME280;58975;51.978;8.472;2024-02-15T12:06:18;100475.47;;;11.31;100.00
4858;BME280;58975;51.978;8.472;2024-02-15T12:11:34;100468.19;;;11.44;100.00
4858;BME280;58975;51.978;8.472;2024-02-15T12:17:06;100459.16;;;11.56;100.00
4858;BME280;58975;51.978;8.472;2024-02-15T12:22:31;100465.78;;;11.62;100.00
4858;BME280;58975;51.978;8.472;2024-02-15T12:27:29;100461.94;;;11.55;100.00
4858;BME280;58975;51.978;8.472;2024-02-15T12:32:27;100450.41;;;11.54;100.00
4858;BME280;58975;51.978;8.472;2024-02-15T12:37:24;100451.59;;;11.61;100.00
4858;BME280;58975;51.978;8.472;2024-02-15T12:42:20;100443.56;;;11.72;100.00
4858;BME280;58975;51.978;8.472;2024-02-15T12:47:20;100426.13;;;11.89;100.00
4858;BME280;58975;51.978;8.472;2024-02-15T12:57:34;100398.09;;;12.25;100.00
4858;BME280;58975;51.978;8.472;2024-02-15T13:02:32;100387.13;;;12.28;100.00
4858;BME280;58975;51.978;8.472;2024-02-15T13:07:28;100375.66;;;12.37;100.00
4858;BME280;58975;51.978;8.472;2024-02-15T13:12:25;100360.63;;;12.46;100.00
4858;BME280;58975;51.978;8.472;2024-02-15T13:17:21;100353.72;;;12.43;100.00
4858;BME280;58975;51.978;8.472;2024-02-15T13:22:18;100354.97;;;12.39;100.00
4858;BME280;58975;51.978;8.472;2024-02-15T13:27:14;100328.94;;;12.31;100.00
4858;BME280;58975;51.978;8.472;2024-02-15T13:32:11;100320.09;;;12.31;100.00
4858;BME280;58975;51.978;8.472;2024-02-15T13:37:08;100312.69;;;12.35;100.00
4858;BME280;58975;51.978;8.472;2024-02-15T13:42:05;100307.75;;;12.30;100.00
4858;BME280;58975;51.978;8.472;2024-02-15T13:47:01;100298.06;;;12.48;100.00
4858;BME280;58975;51.978;8.472;2024-02-15T13:52:01;100284.03;;;12.46;100.00
4858;BME280;58975;51.978;8.472;2024-02-15T13:57:01;100264.88;;;12.51;100.00
4858;BME280;58975;51.978;8.472;2024-02-15T14:01:58;100249.47;;;12.54;100.00
4858;BME280;58975;51.978;8.472;2024-02-15T14:06:55;100253.09;;;12.63;100.00
4858;BME280;58975;51.978;8.472;2024-02-15T14:11:53;100241.84;;;12.78;100.00
4858;BME280;58975;51.978;8.472;2024-02-15T14:16:49;100220.59;;;12.87;100.00
4858;BME280;58975;51.978;8.472;2024-02-15T14:21:46;100219.63;;;12.88;100.00
4858;BME280;58975;51.978;8.472;2024-02-15T14:26:43;100215.97;;;12.89;100.00
4858;BME280;58975;51.978;8.472;2024-02-15T14:31:40;100210.22;;;12.93;100.00
4858;BME280;58975;51.978;8.472;2024-02-15T14:36:55;100210.34;;;13.01;100.00
4858;BME280;58975;51.978;8.472;2024-02-15T14:41:51;100201.06;;;12.96;100.00
4858;BME280;58975;51.978;8.472;2024-02-15T14:46:47;100198.81;;;13.01;100.00
4858;BME280;58975;51.978;8.472;2024-02-15T14:51:44;100193.31;;;12.93;100.00
4858;BME280;58975;51.978;8.472;2024-02-15T14:56:41;100187.81;;;12.94;100.00
4858;BME280;58975;51.978;8.472;2024-02-15T15:01:38;100196.97;;;13.01;100.00
4858;BME280;58975;51.978;8.472;2024-02-15T15:06:36;100172.63;;;13.04;100.00
4858;BME280;58975;51.978;8.472;2024-02-15T15:11:51;100170.63;;;13.06;100.00
4858;BME280;58975;51.978;8.472;2024-02-15T15:17:06;100171.22;;;13.00;100.00
4858;BME280;58975;51.978;8.472;2024-02-15T15:22:03;100173.47;;;12.95;100.00
4858;BME280;58975;51.978;8.472;2024-02-15T15:27:01;100172.91;;;12.92;100.00
4858;BME280;58975;51.978;8.472;2024-02-15T15:31:58;100176.31;;;12.94;100.00
4858;BME280;58975;51.978;8.472;2024-02-15T15:36:54;100174.91;;;12.90;100.00
4858;BME280;58975;51.978;8.472;2024-02-15T15:41:51;100170.84;;;12.86;100.00
4858;BME280;58975;51.978;8.472;2024-02-15T15:46:50;100169.84;;;12.77;100.00
4858;BME280;58975;51.978;8.472;2024-02-15T15:51:50;100170.41;;;12.71;100.00
4858;BME280;58975;51.978;8.472;2024-02-15T15:56:49;100165.50;;;12.66;100.00
4858;BME280;58975;51.978;8.472;2024-02-15T16:01:50;100157.78;;;12.63;100.00
4858;BME280;58975;51.978;8.472;2024-02-15T16:06:47;100159.16;;;12.67;100.00
4858;BME280;58975;51.978;8.472;2024-02-15T16:11:43;100150.34;;;12.48;100.00
4858;BME280;58975;51.978;8.472;2024-02-15T16:16:41;100150.75;;;12.43;100.00
4858;BME280;58975;51.978;8.472;2024-02-15T16:21:39;100141.19;;;12.41;100.00
4858;BME280;58975;51.978;8.472;2024-02-15T16:26:36;100131.94;;;12.45;100.00
4858;BME280;58975;51.978;8.472;2024-02-15T16:31:33;100124.75;;;12.36;100.00
4858;BME280;58975;51.978;8.472;2024-02-15T16:36:29;100126.59;;;12.25;100.00
4858;BME280;58975;51.978;8.472;2024-02-15T16:41:26;100116.75;;;12.16;100.00
4858;BME280;58975;51.978;8.472;2024-02-15T16:46:25;100107.75;;;12.08;100.00
4858;BME280;58975;51.978;8.472;2024-02-15T16:51:22;100113.94;;;11.99;100.00
4858;BME280;58975;51.978;8.472;2024-02-15T16:56:19;100118.16;;;11.92;100.00
4858;BME280;58975;51.978;8.472;2024-02-15T17:01:19;100116.47;;;11.91;100.00
4858;BME280;58975;51.978;8.472;2024-02-15T17:06:16;100129.94;;;11.89;100.00
4858;BME280;58975;51.978;8.472;2024-02-15T17:11:13;100120.69;;;11.83;100.00
4858;BME280;58975;51.978;8.472;2024-02-15T17:16:10;100131.19;;;11.75;100.00
4858;BME280;58975;51.978;8.472;2024-02-15T17:21:07;100130.72;;;11.70;100.00
4858;BME280;58975;51.978;8.472;2024-02-15T17:26:05;100139.97;;;11.66;100.00
4858;BME280;58975;51.978;8.472;2024-02-15T17:31:02;100142.91;;;11.63;100.00
4858;BME280;58975;51.978;8.472;2024-02-15T17:36:04;100155.94;;;11.57;100.00
4858;BME280;58975;51.978;8.472;2024-02-15T17:41:00;100168.88;;;11.61;100.00
4858;BME280;58975;51.978;8.472;2024-02-15T17:45:57;100162.69;;;11.61;100.00
4858;BME280;58975;51.978;8.472;2024-02-15T17:50:55;100175.13;;;11.71;100.00
4858;BME280;58975;51.978;8.472;2024-02-15T17:55:52;100172.38;;;11.62;100.00
4858;BME280;58975;51.978;8.472;2024-02-15T18:00:49;100168.00;;;11.51;100.00
4858;BME280;58975;51.978;8.472;2024-02-15T18:05:45;100158.41;;;11.39;100.00
4858;BME280;58975;51.978;8.472;2024-02-15T18:10:43;100161.59;;;11.33;100.00
4858;BME280;58975;51.978;8.472;2024-02-15T18:15:41;100161.19;;;11.28;100.00
4858;BME280;58975;51.978;8.472;2024-02-15T18:20:45;100163.97;;;11.26;100.00
4858;BME280;58975;51.978;8.472;2024-02-15T18:25:42;100161.28;;;11.17;100.00
4858;BME280;58975;51.978;8.472;2024-02-15T18:30:39;100154.75;;;11.10;100.00
4858;BME280;58975;51.978;8.472;2024-02-15T18:35:39;100150.94;;;11.03;100.00
4858;BME280;58975;51.978;8.472;2024-02-15T18:40:38;100149.66;;;10.97;100.00
4858;BME280;58975;51.978;8.472;2024-02-15T18:45:35;100144.19;;;10.99;100.00
4858;BME280;58975;51.978;8.472;2024-02-15T18:50:32;100129.72;;;10.91;100.00
4858;BME280;58975;51.978;8.472;2024-02-15T18:55:31;100129.00;;;10.89;100.00
4858;BME280;58975;51.978;8.472;2024-02-15T19:00:30;100123.69;;;10.89;100.00
4858;BME280;58975;51.978;8.472;2024-02-15T19:05:38;100120.28;;;10.87;100.00
4858;BME280;58975;51.978;8.472;2024-02-15T19:10:36;100114.13;;;10.87;100.00
4858;BME280;58975;51.978;8.472;2024-02-15T19:15:33;100106.28;;;10.85;100.00
4858;BME280;58975;51.978;8.472;2024-02-15T19:20:29;100091.38;;;10.83;100.00
4858;BME280;58975;51.978;8.472;2024-02-15T19:25:26;100089.84;;;10.80;100.00
4858;BME280;58975;51.978;8.472;2024-02-15T19:30:22;100089.84;;;10.80;100.00
4858;BME280;58975;51.978;8.472;2024-02-15T19:35:19;100093.19;;;10.82;100.00
4858;BME280;58975;51.978;8.472;2024-02-15T19:40:16;100089.72;;;10.82;100.00
4858;BME280;58975;51.978;8.472;2024-02-15T19:45:16;100081.56;;;10.83;100.00
4858;BME280;58975;51.978;8.472;2024-02-15T19:50:14;100064.63;;;10.84;100.00
4858;BME280;58975;51.978;8.472;2024-02-15T19:55:13;100054.66;;;10.86;100.00
4858;BME280;58975;51.978;8.472;2024-02-15T20:00:12;100060.25;;;10.83;100.00
4858;BME280;58975;51.978;8.472;2024-02-15T20:05:10;100053.97;;;10.84;100.00
4858;BME280;58975;51.978;8.472;2024-02-15T20:10:07;100053.00;;;10.85;100.00
4858;BME280;58975;51.978;8.472;2024-02-15T20:15:05;100047.78;;;10.84;100.00
4858;BME280;58975;51.978;8.472;2024-02-15T20:20:05;100057.75;;;10.82;100.00
4858;BME280;58975;51.978;8.472;2024-02-15T20:25:02;100060.53;;;10.80;100.00
4858;BME280;58975;51.978;8.472;2024-02-15T20:30:01;100060.66;;;10.79;100.00
4858;BME280;58975;51.978;8.472;2024-02-15T20:34:58;100053.78;;;10.76;100.00
4858;BME280;58975;51.978;8.472;2024-02-15T20:39:55;100052.63;;;10.69;100.00
4858;BME280;58975;51.978;8.472;2024-02-15T20:44:51;100041.91;;;10.60;100.00
4858;BME280;58975;51.978;8.472;2024-02-15T20:49:48;100038.16;;;10.62;100.00
4858;BME280;58975;51.978;8.472;2024-02-15T20:54:44;100031.41;;;10.58;100.00
4858;BME280;58975;51.978;8.472;2024-02-15T20:59:41;100020.03;;;10.56;100.00
4858;BME280;58975;51.978;8.472;2024-02-15T21:04:38;100019.47;;;10.53;100.00
4858;BME280;58975;51.978;8.472;2024-02-15T21:09:34;100016.09;;;10.51;100.00
4858;BME280;58975;51.978;8.472;2024-02-15T21:14:33;100021.81;;;10.46;100.00
4858;BME280;58975;51.978;8.472;2024-02-15T21:19:30;100016.81;;;10.53;100.00
4858;BME280;58975;51.978;8.472;2024-02-15T21:24:26;100005.13;;;10.44;100.00
4858;BME280;58975;51.978;8.472;2024-02-15T21:29:23;100009.56;;;10.34;100.00
4858;BME280;58975;51.978;8.472;2024-02-15T21:34:19;100011.19;;;10.25;100.00
4858;BME280;58975;51.978;8.472;2024-02-15T21:39:17;100008.22;;;10.19;100.00
4858;BME280;58975;51.978;8.472;2024-02-15T21:44:13;99996.84;;;10.17;100.00
4858;BME280;58975;51.978;8.472;2024-02-15T21:49:11;99998.88;;;10.13;100.00
4858;BME280;58975;51.978;8.472;2024-02-15T21:54:07;99994.22;;;10.06;100.00
4858;BME280;58975;51.978;8.472;2024-02-15T21:59:04;99978.78;;;10.00;100.00
4858;BME280;58975;51.978;8.472;2024-02-15T22:04:00;99978.06;;;9.97;100.00
4858;BME280;58975;51.978;8.472;2024-02-15T22:08:57;99979.03;;;9.96;100.00
4858;BME280;58975;51.978;8.472;2024-02-15T22:13:54;99976.16;;;9.88;100.00
4858;BME280;58975;51.978;8.472;2024-02-15T22:18:50;99977.88;;;9.89;100.00
4858;BME280;58975;51.978;8.472;2024-02-15T22:23:47;99952.13;;;9.90;100.00
4858;BME280;58975;51.978;8.472;2024-02-15T22:28:43;99965.41;;;9.90;100.00
4858;BME280;58975;51.978;8.472;2024-02-15T22:33:40;99956.59;;;9.89;100.00
4858;BME280;58975;51.978;8.472;2024-02-15T22:38:37;99952.97;;;9.90;100.00
4858;BME280;58975;51.978;8.472;2024-02-15T22:43:33;99951.25;;;9.89;100.00
4858;BME280;58975;51.978;8.472;2024-02-15T22:48:30;99940.75;;;9.88;100.00
4858;BME280;58975;51.978;8.472;2024-02-15T22:53:26;99939.41;;;9.93;100.00
4858;BME280;58975;51.978;8.472;2024-02-15T22:58:24;99938.16;;;9.97;100.00
4858;BME280;58975;51.978;8.472;2024-02-15T23:03:21;99939.97;;;9.97;100.00
4858;BME280;58975;51.978;8.472;2024-02-15T23:08:17;99943.47;;;9.97;100.00
4858;BME280;58975;51.978;8.472;2024-02-15T23:13:14;99939.66;;;9.90;100.00
4858;BME280;58975;51.978;8.472;2024-02-15T23:18:10;99943.56;;;9.86;100.00
4858;BME280;58975;51.978;8.472;2024-02-15T23:23:10;99930.25;;;9.86;100.00
4858;BME280;58975;51.978;8.472;2024-02-15T23:28:07;99929.09;;;9.79;100.00
4858;BME280;58975;51.978;8.472;2024-02-15T23:33:05;99924.28;;;9.73;100.00
4858;BME280;58975;51.978;8.472;2024-02-15T23:38:04;99915.34;;;9.74;100.00
4858;BME280;58975;51.978;8.472;2024-02-15T23:43:19;99902.69;;;9.67;100.00
4858;BME280;58975;51.978;8.472;2024-02-15T23:48:15;99908.84;;;9.67;100.00
4858;BME280;58975;51.978;8.472;2024-02-15T23:53:11;99903.28;;;9.70;100.00
4858;BME280;58975;51.978;8.472;2024-02-15T23:58:08;99906.00;;;9.59;100.00
